sensor_id;sensor_type;location;lat;lon;timestamp;pressure;altitude;pressure_sealevel;temperature;humidity
13050;BME280;6591;51.446;5.404;2023-02-21T00:01:45;101807.47;;;15.55;52.90
13050;BME280;6591;51.446;5.404;2023-02-21T00:04:30;101807.59;;;15.54;52.92
13050;BME280;6591;51.446;5.404;2023-02-21T00:07:16;101808.53;;;15.53;52.97
13050;BME280;6591;51.446;5.404;2023-02-21T00:10:03;101817.41;;;15.53;53.35
13050;BME280;6591;51.446;5.404;2023-02-21T00:12:49;101811.19;;;15.53;52.98
13050;BME280;6591;51.446;5.404;2023-02-21T00:15:35;101813.88;;;15.53;52.92
13050;BME280;6591;51.446;5.404;2023-02-21T00:18:20;101813.88;;;15.53;52.94
13050;BME280;6591;51.446;5.404;2023-02-21T00:21:06;101810.31;;;15.52;52.94
13050;BME280;6591;51.446;5.404;2023-02-21T00:23:52;101817.41;;;15.53;52.99
13050;BME280;6591;51.446;5.404;2023-02-21T00:26:37;101819.22;;;15.53;52.83
13050;BME280;6591;51.446;5.404;2023-02-21T00:29:23;101817.41;;;15.53;52.88
13050;BME280;6591;51.446;5.404;2023-02-21T00:32:09;101813.88;;;15.53;53.07
13050;BME280;6591;51.446;5.404;2023-02-21T00:34:54;101823.72;;;15.52;53.15
13050;BME280;6591;51.446;5.404;2023-02-21T00:37:40;101821.06;;;15.51;53.00
13050;BME280;6591;51.446;5.404;2023-02-21T00:40:25;101813.97;;;15.50;52.97
13050;BME280;6591;51.446;5.404;2023-02-21T00:43:11;101811.41;;;15.48;52.96
13050;BME280;6591;51.446;5.404;2023-02-21T00:45:56;101810.53;;;15.48;52.93
13050;BME280;6591;51.446;5.404;2023-02-21T00:48:42;101814.94;;;15.49;53.02
13050;BME280;6591;51.446;5.404;2023-02-21T00:51:27;101812.28;;;15.49;53.13
13050;BME280;6591;51.446;5.404;2023-02-21T00:54:13;101800.75;;;15.47;52.92
13050;BME280;6591;51.446;5.404;2023-02-21T00:56:58;101798.09;;;15.47;53.18
13050;BME280;6591;51.446;5.404;2023-02-21T00:59:44;101794.53;;;15.46;53.10
13050;BME280;6591;51.446;5.404;2023-02-21T01:02:29;101793.66;;;15.46;52.95
13050;BME280;6591;51.446;5.404;2023-02-21T01:05:15;101782.97;;;15.46;53.18
13050;BME280;6591;51.446;5.404;2023-02-21T01:08:03;101791.00;;;15.46;52.90
13050;BME280;6591;51.446;5.404;2023-02-21T01:10:49;101791.94;;;15.45;52.84
13050;BME280;6591;51.446;5.404;2023-02-21T01:13:38;101785.69;;;15.44;52.98
13050;BME280;6591;51.446;5.404;2023-02-21T01:16:23;101787.53;;;15.44;53.11
13050;BME280;6591;51.446;5.404;2023-02-21T01:19:12;101781.31;;;15.43;53.11
13050;BME280;6591;51.446;5.404;2023-02-21T01:22:00;101773.34;;;15.42;52.66
13050;BME280;6591;51.446;5.404;2023-02-21T01:24:50;101785.06;;;15.39;53.30
13050;BME280;6591;51.446;5.404;2023-02-21T01:27:36;101778.84;;;15.39;53.16
13050;BME280;6591;51.446;5.404;2023-02-21T01:30:23;101784.31;;;15.37;53.22
13050;BME280;6591;51.446;5.404;2023-02-21T01:33:10;101773.66;;;15.36;53.20
13050;BME280;6591;51.446;5.404;2023-02-21T01:35:56;101773.66;;;15.36;53.17
13050;BME280;6591;51.446;5.404;2023-02-21T01:38:42;101777.28;;;15.35;52.86
13050;BME280;6591;51.446;5.404;2023-02-21T01:41:29;101778.16;;;15.35;53.19
13050;BME280;6591;51.446;5.404;2023-02-21T01:44:41;101771.22;;;15.31;53.12
13050;BME280;6591;51.446;5.404;2023-02-21T01:47:28;101769.47;;;15.30;53.20
13050;BME280;6591;51.446;5.404;2023-02-21T01:50:26;101776.81;;;15.26;53.11
13050;BME280;6591;51.446;5.404;2023-02-21T01:53:25;101776.88;;;15.25;53.31
13050;BME280;6591;51.446;5.404;2023-02-21T01:56:12;101768.78;;;15.26;53.19
13050;BME280;6591;51.446;5.404;2023-02-21T01:59:00;101768.78;;;15.26;53.25
13050;BME280;6591;51.446;5.404;2023-02-21T02:05:00;101774.25;;;15.23;53.11
13050;BME280;6591;51.446;5.404;2023-02-21T02:07:47;101767.22;;;15.22;53.17
13050;BME280;6591;51.446;5.404;2023-02-21T02:10:33;101766.34;;;15.22;52.97
13050;BME280;6591;51.446;5.404;2023-02-21T02:13:46;101763.91;;;15.17;53.27
13050;BME280;6591;51.446;5.404;2023-02-21T02:16:45;101761.28;;;15.16;53.50
13050;BME280;6591;51.446;5.404;2023-02-21T02:20:14;101757.81;;;15.14;53.37
13050;BME280;6591;51.446;5.404;2023-02-21T02:35:13;101743.84;;;15.07;53.20
13050;BME280;6591;51.446;5.404;2023-02-21T02:37:55;101748.22;;;15.10;53.41
13050;BME280;6591;51.446;5.404;2023-02-21T02:41:24;101737.75;;;15.05;53.48
13050;BME280;6591;51.446;5.404;2023-02-21T02:44:14;101735.06;;;15.05;53.67
13050;BME280;6591;51.446;5.404;2023-02-21T02:46:48;101733.09;;;15.09;53.53
13050;BME280;6591;51.446;5.404;2023-02-21T02:49:25;101726.88;;;15.08;53.53
13050;BME280;6591;51.446;5.404;2023-02-21T02:51:54;101724.13;;;15.10;53.52
13050;BME280;6591;51.446;5.404;2023-02-21T02:54:28;101722.31;;;15.10;53.49
13050;BME280;6591;51.446;5.404;2023-02-21T02:56:56;101724.13;;;15.10;53.42
13050;BME280;6591;51.446;5.404;2023-02-21T02:59:27;101726.88;;;15.08;53.58
13050;BME280;6591;51.446;5.404;2023-02-21T03:05:23;101716.47;;;15.02;53.68
13050;BME280;6591;51.446;5.404;2023-02-21T03:08:28;101719.16;;;15.02;53.76
13050;BME280;6591;51.446;5.404;2023-02-21T03:14:06;101704.84;;;15.03;53.74
13050;BME280;6591;51.446;5.404;2023-02-21T03:16:47;101716.34;;;15.05;53.59
13050;BME280;6591;51.446;5.404;2023-02-21T03:19:33;101718.22;;;15.03;53.77
13050;BME280;6591;51.446;5.404;2023-02-21T03:22:10;101715.47;;;15.05;53.67
13050;BME280;6591;51.446;5.404;2023-02-21T03:24:42;101713.66;;;15.05;53.57
13050;BME280;6591;51.446;5.404;2023-02-21T03:27:12;101713.66;;;15.05;53.56
13050;BME280;6591;51.446;5.404;2023-02-21T03:29:54;101708.38;;;15.04;53.81
13050;BME280;6591;51.446;5.404;2023-02-21T03:32:32;101716.41;;;15.04;53.61
13050;BME280;6591;51.446;5.404;2023-02-21T03:35:03;101713.66;;;15.05;53.84
13050;BME280;6591;51.446;5.404;2023-02-21T03:37:39;101710.13;;;15.05;53.70
13050;BME280;6591;51.446;5.404;2023-02-21T03:40:13;101711.94;;;15.04;53.98
13050;BME280;6591;51.446;5.404;2023-02-21T03:42:45;101707.38;;;15.06;53.71
13050;BME280;6591;51.446;5.404;2023-02-21T03:45:15;101704.72;;;15.06;53.71
13050;BME280;6591;51.446;5.404;2023-02-21T03:47:48;101705.47;;;15.08;53.69
13050;BME280;6591;51.446;5.404;2023-02-21T03:50:17;101708.09;;;15.10;53.66
13050;BME280;6591;51.446;5.404;2023-02-21T03:52:45;101700.00;;;15.11;53.99
13050;BME280;6591;51.446;5.404;2023-02-21T03:55:13;101720.44;;;15.12;53.73
13050;BME280;6591;51.446;5.404;2023-02-21T03:57:41;101716.81;;;15.13;53.91
13050;BME280;6591;51.446;5.404;2023-02-21T04:00:09;101721.28;;;15.13;53.85
13050;BME280;6591;51.446;5.404;2023-02-21T04:02:43;101711.63;;;15.10;53.63
13050;BME280;6591;51.446;5.404;2023-02-21T04:05:21;101713.25;;;15.13;53.76
13050;BME280;6591;51.446;5.404;2023-02-21T04:07:49;101710.59;;;15.13;53.93
13050;BME280;6591;51.446;5.404;2023-02-21T04:10:16;101713.25;;;15.13;53.98
13050;BME280;6591;51.446;5.404;2023-02-21T04:12:44;101716.03;;;15.11;53.75
13050;BME280;6591;51.446;5.404;2023-02-21T04:15:11;101713.38;;;15.11;53.84
13050;BME280;6591;51.446;5.404;2023-02-21T04:17:39;101707.16;;;15.11;53.98
13050;BME280;6591;51.446;5.404;2023-02-21T04:20:08;101700.94;;;15.10;53.99
13050;BME280;6591;51.446;5.404;2023-02-21T04:22:41;101708.00;;;15.11;53.86
13050;BME280;6591;51.446;5.404;2023-02-21T04:25:14;101700.84;;;15.12;53.78
13050;BME280;6591;51.446;5.404;2023-02-21T04:27:47;101704.41;;;15.12;54.15
13050;BME280;6591;51.446;5.404;2023-02-21T04:30:15;101707.91;;;15.13;54.07
13050;BME280;6591;51.446;5.404;2023-02-21T04:32:42;101706.22;;;15.12;54.00
13050;BME280;6591;51.446;5.404;2023-02-21T04:35:13;101698.25;;;15.10;53.52
13050;BME280;6591;51.446;5.404;2023-02-21T04:37:42;101703.59;;;15.10;53.80
13050;BME280;6591;51.446;5.404;2023-02-21T04:40:12;101696.50;;;15.09;53.87
13050;BME280;6591;51.446;5.404;2023-02-21T04:42:39;101699.25;;;15.08;54.08
13050;BME280;6591;51.446;5.404;2023-02-21T04:45:07;101696.50;;;15.09;53.90
13050;BME280;6591;51.446;5.404;2023-02-21T04:47:35;101693.91;;;15.08;53.92
13050;BME280;6591;51.446;5.404;2023-02-21T04:50:04;101689.44;;;15.08;53.50
13050;BME280;6591;51.446;5.404;2023-02-21T04:52:31;101693.03;;;15.07;54.25
13050;BME280;6591;51.446;5.404;2023-02-21T04:54:59;101686.75;;;15.08;54.01
13050;BME280;6591;51.446;5.404;2023-02-21T04:57:25;101689.44;;;15.08;54.19
13050;BME280;6591;51.446;5.404;2023-02-21T04:59:58;101690.47;;;15.06;53.96
13050;BME280;6591;51.446;5.404;2023-02-21T05:02:26;101685.88;;;15.08;53.90
13050;BME280;6591;51.446;5.404;2023-02-21T05:04:53;101687.69;;;15.07;53.93
13050;BME280;6591;51.446;5.404;2023-02-21T05:07:21;101689.44;;;15.08;53.90
13050;BME280;6591;51.446;5.404;2023-02-21T05:09:48;101689.44;;;15.08;54.09
13050;BME280;6591;51.446;5.404;2023-02-21T05:12:16;101684.06;;;15.08;54.14
13050;BME280;6591;51.446;5.404;2023-02-21T05:14:42;101693.03;;;15.07;54.26
13050;BME280;6591;51.446;5.404;2023-02-21T05:17:10;101692.09;;;15.08;54.09
13050;BME280;6591;51.446;5.404;2023-02-21T05:19:37;101689.44;;;15.08;54.13
13050;BME280;6591;51.446;5.404;2023-02-21T05:22:04;101690.28;;;15.09;54.09
13050;BME280;6591;51.446;5.404;2023-02-21T05:24:33;101688.56;;;15.08;54.27
13050;BME280;6591;51.446;5.404;2023-02-21T05:27:01;101692.03;;;15.10;54.23
13050;BME280;6591;51.446;5.404;2023-02-21T05:29:28;101686.75;;;15.08;54.00
13050;BME280;6591;51.446;5.404;2023-02-21T05:31:55;101694.88;;;15.07;54.10
13050;BME280;6591;51.446;5.404;2023-02-21T05:34:22;101694.94;;;15.05;54.17
13050;BME280;6591;51.446;5.404;2023-02-21T05:36:49;101693.19;;;15.04;54.12
13050;BME280;6591;51.446;5.404;2023-02-21T05:39:16;101689.72;;;15.02;54.25
13050;BME280;6591;51.446;5.404;2023-02-21T05:41:50;101704.94;;;15.02;54.05
13050;BME280;6591;51.446;5.404;2023-02-21T05:44:17;101704.06;;;15.01;54.16
13050;BME280;6591;51.446;5.404;2023-02-21T05:46:44;101697.84;;;15.01;54.22
13050;BME280;6591;51.446;5.404;2023-02-21T05:49:12;101695.25;;;14.99;54.19
13050;BME280;6591;51.446;5.404;2023-02-21T05:51:42;101694.38;;;14.99;54.09
13050;BME280;6591;51.446;5.404;2023-02-21T05:54:16;101701.63;;;14.97;54.27
13050;BME280;6591;51.446;5.404;2023-02-21T05:56:45;101701.53;;;14.98;54.44
13050;BME280;6591;51.446;5.404;2023-02-21T05:59:14;101705.06;;;14.99;54.09
13050;BME280;6591;51.446;5.404;2023-02-21T06:01:42;101700.59;;;14.99;54.25
13050;BME280;6591;51.446;5.404;2023-02-21T06:04:09;101698.78;;;15.00;54.11
13050;BME280;6591;51.446;5.404;2023-02-21T06:06:36;101697.97;;;14.98;54.06
13050;BME280;6591;51.446;5.404;2023-02-21T06:09:04;101703.34;;;14.98;54.19
13050;BME280;6591;51.446;5.404;2023-02-21T06:11:34;101697.13;;;14.97;54.27
13050;BME280;6591;51.446;5.404;2023-02-21T06:14:08;101703.50;;;14.95;54.37
13050;BME280;6591;51.446;5.404;2023-02-21T06:16:38;101709.72;;;14.95;54.34
13050;BME280;6591;51.446;5.404;2023-02-21T06:19:07;101706.09;;;14.96;54.20
13050;BME280;6591;51.446;5.404;2023-02-21T06:21:35;101704.38;;;14.95;54.16
13050;BME280;6591;51.446;5.404;2023-02-21T06:24:03;101710.66;;;14.94;54.34
13050;BME280;6591;51.446;5.404;2023-02-21T06:26:31;101713.31;;;14.94;54.41
13050;BME280;6591;51.446;5.404;2023-02-21T06:28:59;101709.84;;;14.92;54.23
13050;BME280;6591;51.446;5.404;2023-02-21T06:31:26;101712.53;;;14.92;54.35
13050;BME280;6591;51.446;5.404;2023-02-21T06:33:53;101711.66;;;14.92;54.32
13050;BME280;6591;51.446;5.404;2023-02-21T06:36:25;101709.16;;;14.89;54.39
13050;BME280;6591;51.446;5.404;2023-02-21T06:38:55;101702.94;;;14.88;54.47
13050;BME280;6591;51.446;5.404;2023-02-21T06:41:28;101705.78;;;14.85;54.26
13050;BME280;6591;51.446;5.404;2023-02-21T06:43:57;101705.84;;;14.83;54.39
13050;BME280;6591;51.446;5.404;2023-02-21T06:46:28;101720.06;;;14.84;54.42
13050;BME280;6591;51.446;5.404;2023-02-21T06:48:56;101716.47;;;14.85;54.68
13050;BME280;6591;51.446;5.404;2023-02-21T06:51:23;101709.38;;;14.84;54.54
13050;BME280;6591;51.446;5.404;2023-02-21T06:53:56;101712.00;;;14.86;54.30
13050;BME280;6591;51.446;5.404;2023-02-21T06:56:24;101709.31;;;14.86;54.55
13050;BME280;6591;51.446;5.404;2023-02-21T06:58:51;101717.34;;;14.86;54.67
13050;BME280;6591;51.446;5.404;2023-02-21T07:01:19;101698.63;;;14.86;54.55
13050;BME280;6591;51.446;5.404;2023-02-21T07:03:46;101703.97;;;14.86;54.50
13050;BME280;6591;51.446;5.404;2023-02-21T07:06:14;101711.88;;;14.87;54.49
13050;BME280;6591;51.446;5.404;2023-02-21T07:08:41;101714.66;;;14.86;54.66
13050;BME280;6591;51.446;5.404;2023-02-21T07:11:08;101723.44;;;14.88;54.57
13050;BME280;6591;51.446;5.404;2023-02-21T07:13:36;101714.56;;;14.87;54.48
13050;BME280;6591;51.446;5.404;2023-02-21T07:16:04;101709.22;;;14.87;54.87
13050;BME280;6591;51.446;5.404;2023-02-21T07:18:32;101714.56;;;14.87;54.47
13050;BME280;6591;51.446;5.404;2023-02-21T07:20:59;101722.59;;;14.87;54.39
13050;BME280;6591;51.446;5.404;2023-02-21T07:23:27;101717.41;;;14.84;54.55
13050;BME280;6591;51.446;5.404;2023-02-21T07:25:54;101717.56;;;14.81;54.39
13050;BME280;6591;51.446;5.404;2023-02-21T07:28:24;101719.44;;;14.79;54.67
13050;BME280;6591;51.446;5.404;2023-02-21T07:30:51;101710.59;;;14.77;54.60
13050;BME280;6591;51.446;5.404;2023-02-21T07:33:18;101719.56;;;14.76;54.51
13050;BME280;6591;51.446;5.404;2023-02-21T07:35:46;101718.72;;;14.75;55.03
13050;BME280;6591;51.446;5.404;2023-02-21T07:38:25;101716.19;;;14.72;54.74
13050;BME280;6591;51.446;5.404;2023-02-21T07:40:58;101715.31;;;14.72;54.52
13050;BME280;6591;51.446;5.404;2023-02-21T07:43:28;101716.25;;;14.71;54.71
13050;BME280;6591;51.446;5.404;2023-02-21T07:45:56;101719.88;;;14.70;54.98
13050;BME280;6591;51.446;5.404;2023-02-21T07:48:23;101723.50;;;14.69;54.39
13050;BME280;6591;51.446;5.404;2023-02-21T07:50:50;101724.38;;;14.69;54.74
13050;BME280;6591;51.446;5.404;2023-02-21T07:53:17;101718.16;;;14.69;54.85
13050;BME280;6591;51.446;5.404;2023-02-21T07:55:44;101711.06;;;14.68;54.89
13050;BME280;6591;51.446;5.404;2023-02-21T07:58:11;101719.88;;;14.70;55.08
13050;BME280;6591;51.446;5.404;2023-02-21T08:00:38;101722.47;;;14.71;54.66
13050;BME280;6591;51.446;5.404;2023-02-21T08:03:06;101717.13;;;14.71;55.03
13050;BME280;6591;51.446;5.404;2023-02-21T08:05:33;101717.06;;;14.73;54.99
13050;BME280;6591;51.446;5.404;2023-02-21T08:08:01;101716.88;;;14.76;54.84
13050;BME280;6591;51.446;5.404;2023-02-21T08:10:28;101721.31;;;14.77;55.06
13050;BME280;6591;51.446;5.404;2023-02-21T08:12:55;101724.78;;;14.79;55.14
13050;BME280;6591;51.446;5.404;2023-02-21T08:15:22;101717.56;;;14.81;55.06
13050;BME280;6591;51.446;5.404;2023-02-21T08:17:50;101716.53;;;14.83;54.90
13050;BME280;6591;51.446;5.404;2023-02-21T08:20:18;101714.56;;;14.87;55.16
13050;BME280;6591;51.446;5.404;2023-02-21T08:22:45;101723.38;;;14.89;55.01
13050;BME280;6591;51.446;5.404;2023-02-21T08:25:15;101723.31;;;14.91;54.97
13050;BME280;6591;51.446;5.404;2023-02-21T08:27:44;101716.06;;;14.93;54.79
13050;BME280;6591;51.446;5.404;2023-02-21T08:30:15;101700.03;;;14.93;54.60
13050;BME280;6591;51.446;5.404;2023-02-21T08:32:44;101713.31;;;14.94;54.60
13050;BME280;6591;51.446;5.404;2023-02-21T08:35:15;101714.19;;;14.95;55.02
13050;BME280;6591;51.446;5.404;2023-02-21T08:37:48;101717.75;;;14.95;55.05
13050;BME280;6591;51.446;5.404;2023-02-21T08:40:18;101713.09;;;14.99;54.96
13050;BME280;6591;51.446;5.404;2023-02-21T08:42:52;101700.59;;;14.99;54.90
13050;BME280;6591;51.446;5.404;2023-02-21T08:45:21;101698.78;;;15.00;54.95
13050;BME280;6591;51.446;5.404;2023-02-21T08:47:52;101694.31;;;15.00;54.63
13050;BME280;6591;51.446;5.404;2023-02-21T08:50:21;101709.31;;;15.03;54.90
13050;BME280;6591;51.446;5.404;2023-02-21T08:52:50;101712.78;;;15.05;55.06
13050;BME280;6591;51.446;5.404;2023-02-21T08:55:18;101715.31;;;15.08;54.66
13050;BME280;6591;51.446;5.404;2023-02-21T08:57:51;101700.13;;;15.08;54.92
13050;BME280;6591;51.446;5.404;2023-02-21T09:00:22;101698.19;;;15.12;55.02
13050;BME280;6591;51.446;5.404;2023-02-21T09:02:50;101697.06;;;15.16;54.84
13050;BME280;6591;51.446;5.404;2023-02-21T09:05:26;101699.50;;;15.20;55.02
13050;BME280;6591;51.446;5.404;2023-02-21T09:07:56;101694.88;;;15.24;55.16
13050;BME280;6591;51.446;5.404;2023-02-21T09:10:31;101701.72;;;15.30;55.19
13050;BME280;6591;51.446;5.404;2023-02-21T09:13:04;101695.25;;;15.34;55.31
13050;BME280;6591;51.446;5.404;2023-02-21T09:15:31;101697.72;;;15.38;55.09
13050;BME280;6591;51.446;5.404;2023-02-21T09:17:58;101699.28;;;15.42;55.08
13050;BME280;6591;51.446;5.404;2023-02-21T09:20:27;101694.63;;;15.46;55.20
13050;BME280;6591;51.446;5.404;2023-02-21T09:22:54;101690.84;;;15.50;54.57
13050;BME280;6591;51.446;5.404;2023-02-21T09:25:26;101686.25;;;15.53;54.94
13050;BME280;6591;51.446;5.404;2023-02-21T09:27:53;101693.09;;;15.59;55.10
13050;BME280;6591;51.446;5.404;2023-02-21T09:30:24;101686.63;;;15.63;54.88
13050;BME280;6591;51.446;5.404;2023-02-21T09:32:52;101686.31;;;15.69;54.85
13050;BME280;6591;51.446;5.404;2023-02-21T09:35:24;101682.69;;;15.70;54.98
13050;BME280;6591;51.446;5.404;2023-02-21T09:37:51;101680.72;;;15.74;54.79
13050;BME280;6591;51.446;5.404;2023-02-21T09:43:12;101677.78;;;15.78;54.74
13050;BME280;6591;51.446;5.404;2023-02-21T09:45:43;101676.66;;;15.82;55.02
13050;BME280;6591;51.446;5.404;2023-02-21T09:48:15;101682.81;;;15.84;54.74
13050;BME280;6591;51.446;5.404;2023-02-21T09:50:49;101687.03;;;15.88;55.00
13050;BME280;6591;51.446;5.404;2023-02-21T09:53:31;101676.16;;;15.91;54.82
13050;BME280;6591;51.446;5.404;2023-02-21T09:58:32;101682.78;;;16.01;54.87
13050;BME280;6591;51.446;5.404;2023-02-21T10:01:13;101687.00;;;16.05;54.70
13050;BME280;6591;51.446;5.404;2023-02-21T10:10:11;101692.88;;;16.12;54.61
13050;BME280;6591;51.446;5.404;2023-02-21T10:16:03;101694.59;;;16.13;54.62
13050;BME280;6591;51.446;5.404;2023-02-21T10:21:35;101704.47;;;16.13;54.21
13050;BME280;6591;51.446;5.404;2023-02-21T10:24:13;101693.75;;;16.13;54.35
13050;BME280;6591;51.446;5.404;2023-02-21T10:26:49;101701.63;;;16.16;54.34
13050;BME280;6591;51.446;5.404;2023-02-21T10:29:25;101695.16;;;16.20;54.07
13050;BME280;6591;51.446;5.404;2023-02-21T10:32:01;101692.28;;;16.23;54.42
13050;BME280;6591;51.446;5.404;2023-02-21T10:34:32;101684.97;;;16.26;54.08
13050;BME280;6591;51.446;5.404;2023-02-21T10:40:46;101691.53;;;16.21;54.18
13050;BME280;6591;51.446;5.404;2023-02-21T10:46:30;101698.69;;;16.20;54.20
13050;BME280;6591;51.446;5.404;2023-02-21T10:49:24;101693.25;;;16.22;54.29
13050;BME280;6591;51.446;5.404;2023-02-21T10:52:17;101695.75;;;16.25;54.43
13050;BME280;6591;51.446;5.404;2023-02-21T10:55:15;101698.44;;;16.25;53.87
13050;BME280;6591;51.446;5.404;2023-02-21T10:58:05;101700.78;;;16.31;54.21
13050;BME280;6591;51.446;5.404;2023-02-21T11:00:43;101690.00;;;16.32;54.34
13050;BME280;6591;51.446;5.404;2023-02-21T11:05:53;101678.81;;;16.40;54.35
13050;BME280;6591;51.446;5.404;2023-02-21T11:08:53;101680.56;;;16.41;54.21
13050;BME280;6591;51.446;5.404;2023-02-21T11:11:39;101678.47;;;16.46;54.12
13050;BME280;6591;51.446;5.404;2023-02-21T11:14:23;101685.25;;;16.53;54.21
13050;BME280;6591;51.446;5.404;2023-02-21T11:17:10;101674.16;;;16.59;54.14
13050;BME280;6591;51.446;5.404;2023-02-21T11:20:02;101664.06;;;16.64;54.15
13050;BME280;6591;51.446;5.404;2023-02-21T11:22:42;101675.22;;;16.72;53.96
13050;BME280;6591;51.446;5.404;2023-02-21T11:25:29;101679.44;;;16.76;54.09
13050;BME280;6591;51.446;5.404;2023-02-21T11:28:25;101669.22;;;16.83;54.15
13050;BME280;6591;51.446;5.404;2023-02-21T11:31:30;101658.91;;;16.91;54.04
13050;BME280;6591;51.446;5.404;2023-02-21T11:34:05;101655.69;;;17.00;53.87
13050;BME280;6591;51.446;5.404;2023-02-21T11:36:36;101655.22;;;17.08;53.84
13050;BME280;6591;51.446;5.404;2023-02-21T11:39:14;101646.03;;;17.12;53.57
13050;BME280;6591;51.446;5.404;2023-02-21T11:42:03;101639.56;;;17.16;53.76
13050;BME280;6591;51.446;5.404;2023-02-21T11:44:38;101638.41;;;17.20;53.64
13050;BME280;6591;51.446;5.404;2023-02-21T11:47:30;101639.28;;;17.20;53.48
13050;BME280;6591;51.446;5.404;2023-02-21T11:50:25;101634.78;;;17.21;53.51
13050;BME280;6591;51.446;5.404;2023-02-21T11:53:19;101632.75;;;17.24;53.59
13050;BME280;6591;51.446;5.404;2023-02-21T12:01:58;101625.78;;;17.50;53.80
13050;BME280;6591;51.446;5.404;2023-02-21T12:15:59;101613.94;;;17.97;52.90
13050;BME280;6591;51.446;5.404;2023-02-21T12:18:34;101611.72;;;18.03;52.74
13050;BME280;6591;51.446;5.404;2023-02-21T12:27:02;101615.63;;;18.12;52.87
13050;BME280;6591;51.446;5.404;2023-02-21T12:33:23;101609.00;;;18.17;52.35
13050;BME280;6591;51.446;5.404;2023-02-21T12:36:29;101599.09;;;18.18;52.21
13050;BME280;6591;51.446;5.404;2023-02-21T12:39:43;101602.09;;;18.13;52.14
13050;BME280;6591;51.446;5.404;2023-02-21T12:48:57;101589.34;;;18.03;51.90
13050;BME280;6591;51.446;5.404;2023-02-21T12:51:40;101590.31;;;18.02;51.82
13050;BME280;6591;51.446;5.404;2023-02-21T12:54:20;101587.81;;;17.99;51.53
13050;BME280;6591;51.446;5.404;2023-02-21T12:57:01;101588.56;;;18.01;51.80
13050;BME280;6591;51.446;5.404;2023-02-21T13:06:10;101582.94;;;18.05;51.66
13050;BME280;6591;51.446;5.404;2023-02-21T13:09:01;101583.59;;;18.09;51.50
13050;BME280;6591;51.446;5.404;2023-02-21T13:11:44;101575.31;;;18.12;51.22
13050;BME280;6591;51.446;5.404;2023-02-21T13:14:30;101581.84;;;18.08;50.88
13050;BME280;6591;51.446;5.404;2023-02-21T13:16:58;101580.13;;;18.07;50.72
13050;BME280;6591;51.446;5.404;2023-02-21T13:19:39;101581.69;;;17.97;50.64
13050;BME280;6591;51.446;5.404;2023-02-21T13:28:33;101560.81;;;17.73;51.11
13050;BME280;6591;51.446;5.404;2023-02-21T13:31:23;101559.94;;;17.73;50.92
13050;BME280;6591;51.446;5.404;2023-02-21T13:33:55;101556.09;;;17.77;51.24
13050;BME280;6591;51.446;5.404;2023-02-21T13:36:42;101560.59;;;17.76;50.89
13050;BME280;6591;51.446;5.404;2023-02-21T13:39:32;101555.13;;;17.78;51.00
13050;BME280;6591;51.446;5.404;2023-02-21T13:42:18;101543.69;;;17.74;51.11
13050;BME280;6591;51.446;5.404;2023-02-21T13:45:19;101552.94;;;17.70;50.99
13050;BME280;6591;51.446;5.404;2023-02-21T13:53:14;101543.31;;;17.52;50.60
13050;BME280;6591;51.446;5.404;2023-02-21T13:58:46;101546.19;;;17.35;50.71
13050;BME280;6591;51.446;5.404;2023-02-21T14:03:56;101539.69;;;17.25;50.69
13050;BME280;6591;51.446;5.404;2023-02-21T14:06:30;101536.78;;;17.14;50.43
13050;BME280;6591;51.446;5.404;2023-02-21T14:09:09;101541.84;;;17.04;50.29
13050;BME280;6591;51.446;5.404;2023-02-21T14:11:47;101537.81;;;16.97;50.53
13050;BME280;6591;51.446;5.404;2023-02-21T14:14:31;101541.06;;;16.88;50.88
13050;BME280;6591;51.446;5.404;2023-02-21T14:17:07;101542.97;;;16.86;50.93
13050;BME280;6591;51.446;5.404;2023-02-21T14:19:47;101533.28;;;16.83;50.56
13050;BME280;6591;51.446;5.404;2023-02-21T14:22:24;101536.72;;;16.85;50.91
13050;BME280;6591;51.446;5.404;2023-02-21T14:25:14;101544.69;;;16.87;50.89
13050;BME280;6591;51.446;5.404;2023-02-21T14:27:43;101534.47;;;16.93;50.95
13050;BME280;6591;51.446;5.404;2023-02-21T14:32:44;101522.56;;;16.98;50.69
13050;BME280;6591;51.446;5.404;2023-02-21T14:38:05;101518.94;;;16.99;50.74
13050;BME280;6591;51.446;5.404;2023-02-21T14:40:48;101511.56;;;17.02;50.56
13050;BME280;6591;51.446;5.404;2023-02-21T14:52:57;101505.31;;;17.02;50.92
13050;BME280;6591;51.446;5.404;2023-02-21T14:58:51;101501.19;;;16.96;50.26
13050;BME280;6591;51.446;5.404;2023-02-21T15:10:26;101504.78;;;16.67;50.29
13050;BME280;6591;51.446;5.404;2023-02-21T15:13:03;101504.13;;;16.63;50.46
13050;BME280;6591;51.446;5.404;2023-02-21T15:15:41;101501.00;;;16.55;50.55
13050;BME280;6591;51.446;5.404;2023-02-21T15:18:37;101494.53;;;16.43;50.42
13050;BME280;6591;51.446;5.404;2023-02-21T15:23:47;101504.06;;;16.33;50.74
13050;BME280;6591;51.446;5.404;2023-02-21T15:26:30;101497.25;;;16.28;50.59
13050;BME280;6591;51.446;5.404;2023-02-21T15:29:17;101499.34;;;16.23;50.51
13050;BME280;6591;51.446;5.404;2023-02-21T15:31:55;101490.63;;;16.19;50.70
13050;BME280;6591;51.446;5.404;2023-02-21T15:34:35;101487.19;;;16.17;50.75
13050;BME280;6591;51.446;5.404;2023-02-21T15:37:36;101491.09;;;16.12;50.84
13050;BME280;6591;51.446;5.404;2023-02-21T15:40:15;101486.56;;;16.12;51.01
13050;BME280;6591;51.446;5.404;2023-02-21T15:42:48;101488.41;;;16.12;50.93
13050;BME280;6591;51.446;5.404;2023-02-21T15:45:44;101491.59;;;16.02;50.76
13050;BME280;6591;51.446;5.404;2023-02-21T15:48:16;101496.09;;;16.02;50.91
13050;BME280;6591;51.446;5.404;2023-02-21T15:50:45;101490.13;;;15.97;50.90
13050;BME280;6591;51.446;5.404;2023-02-21T15:53:23;101490.41;;;15.92;50.88
13050;BME280;6591;51.446;5.404;2023-02-21T15:55:52;101486.16;;;15.88;50.90
13050;BME280;6591;51.446;5.404;2023-02-21T15:58:26;101485.56;;;15.83;51.11
13050;BME280;6591;51.446;5.404;2023-02-21T16:01:07;101483.22;;;15.77;50.83
13050;BME280;6591;51.446;5.404;2023-02-21T16:03:43;101483.56;;;15.71;50.83
13050;BME280;6591;51.446;5.404;2023-02-21T16:06:26;101480.47;;;15.63;50.80